createdAt,value
2019-05-01T07:20:11.886Z,12.40
2019-05-01T07:23:47.670Z,11.50
2019-05-01T08:11:25.797Z,11.30
2019-05-01T08:27:28.374Z,11.30
2019-05-01T20:10:13.487Z,10.70
2019-05-01T20:18:19.634Z,10.70
2019-05-01T20:21:11.344Z,10.60
2019-05-01T20:23:57.856Z,11.90
2019-05-01T20:26:43.939Z,14.10
2019-05-01T20:29:30.620Z,16.10
2019-05-01T20:32:21.101Z,17.80
2019-05-01T20:35:04.579Z,19.10
2019-05-01T20:37:50.501Z,20.10
2019-05-01T20:40:36.900Z,20.80
2019-05-01T20:43:23.164Z,21.30
2019-05-01T20:46:09.860Z,21.70
2019-05-01T20:49:00.989Z,22.00
2019-05-01T20:51:45.064Z,22.30
2019-05-01T20:54:31.487Z,22.50
2019-05-01T20:57:24.819Z,22.60
2019-05-01T21:00:16.602Z,22.70
2019-05-01T21:03:00.731Z,22.80
2019-05-01T21:05:55.748Z,22.90
2019-05-01T21:09:16.559Z,22.90
2019-05-01T21:12:05.420Z,23.00
2019-05-01T21:14:51.781Z,23.00
2019-05-01T21:17:38.131Z,23.10
2019-05-01T21:20:24.842Z,23.10
2019-05-01T21:23:11.746Z,23.10
2019-05-01T21:25:59.415Z,23.10
2019-05-01T21:28:45.763Z,23.20
2019-05-01T21:31:33.986Z,23.20
2019-05-01T21:34:20.171Z,23.20
2019-05-01T21:37:07.287Z,23.20
2019-05-01T21:39:53.829Z,23.20
2019-05-01T21:42:42.890Z,23.20
2019-05-01T21:45:28.748Z,23.20
2019-05-01T21:48:15.139Z,23.20
2019-05-01T21:51:03.305Z,23.20
2019-05-01T21:53:49.355Z,23.30
2019-05-01T21:56:36.937Z,23.20
2019-05-01T21:59:25.475Z,23.30
2019-05-01T22:02:11.972Z,23.30
2019-05-01T22:05:03.718Z,23.30
2019-05-01T22:07:46.410Z,23.30
2019-05-01T22:10:33.787Z,23.30
2019-05-01T22:13:24.190Z,23.30
2019-05-01T22:16:18.532Z,23.30
2019-05-01T22:19:29.840Z,23.30
2019-05-01T22:22:24.455Z,23.30
2019-05-01T22:25:15.278Z,23.30
2019-05-01T22:28:08.895Z,23.30
2019-05-01T22:31:09.259Z,23.30
2019-05-01T22:34:17.707Z,23.30
2019-05-01T22:37:04.108Z,23.30
2019-05-01T22:39:56.003Z,23.40
2019-05-01T22:42:42.299Z,23.30
2019-05-01T22:45:28.923Z,23.40
2019-05-01T22:48:15.347Z,23.30
2019-05-01T22:51:08.853Z,23.30
2019-05-01T22:53:55.144Z,23.30
2019-05-01T22:56:41.607Z,23.30
2019-05-01T22:59:27.985Z,23.30
2019-05-01T23:02:28.486Z,23.30
2019-05-01T23:05:13.415Z,23.30
2019-05-01T23:07:59.830Z,23.30
2019-05-01T23:10:46.939Z,23.30
2019-05-01T23:13:34.696Z,23.30
2019-05-01T23:16:22.853Z,23.30
2019-05-01T23:19:09.153Z,23.30
2019-05-01T23:21:58.222Z,23.30
2019-05-01T23:24:43.879Z,23.30
2019-05-01T23:27:30.786Z,23.30
2019-05-01T23:30:20.016Z,23.30
2019-05-01T23:33:06.060Z,23.30
2019-05-01T23:35:52.139Z,23.30
2019-05-01T23:38:38.515Z,23.20
2019-05-01T23:41:44.731Z,23.20
2019-05-01T23:44:12.949Z,23.20
2019-05-01T23:46:59.504Z,23.20
2019-05-01T23:49:47.751Z,23.20
2019-05-01T23:52:34.040Z,23.20
2019-05-01T23:55:21.091Z,23.20
2019-05-01T23:58:07.652Z,23.20
